createdAt,value
2023-02-18T00:01:57.996Z,7.50
2023-02-18T00:04:26.504Z,7.50
2023-02-18T00:06:54.995Z,7.50
2023-02-18T00:09:23.515Z,7.50
2023-02-18T00:11:51.926Z,7.50
2023-02-18T00:14:20.507Z,7.50
2023-02-18T00:16:49.004Z,7.50
2023-02-18T00:19:20.755Z,7.50
2023-02-18T00:21:49.572Z,7.50
2023-02-18T00:24:18.635Z,7.50
2023-02-18T00:26:47.380Z,7.50
2023-02-18T00:29:15.975Z,7.50
2023-02-18T00:31:45.241Z,7.50
2023-02-18T00:34:14.276Z,7.50
2023-02-18T00:36:44.445Z,7.50
2023-02-18T00:39:13.889Z,7.60
2023-02-18T00:41:43.119Z,7.50
2023-02-18T00:44:13.036Z,7.50
2023-02-18T00:46:41.660Z,7.50
2023-02-18T00:49:10.652Z,7.50
2023-02-18T00:51:39.191Z,7.60
2023-02-18T00:54:09.104Z,7.50
2023-02-18T00:56:37.742Z,7.60
2023-02-18T00:59:06.322Z,7.50
2023-02-18T01:01:35.426Z,7.50
2023-02-18T01:04:03.927Z,7.50
2023-02-18T01:06:32.396Z,7.50
2023-02-18T01:09:00.970Z,7.50
2023-02-18T01:11:30.868Z,7.50
2023-02-18T01:13:59.336Z,7.50
2023-02-18T01:16:27.894Z,7.50
2023-02-18T01:18:56.415Z,7.50
2023-02-18T01:21:25.089Z,7.40
2023-02-18T01:23:53.546Z,7.40
2023-02-18T01:26:22.021Z,7.40
2023-02-18T01:28:51.930Z,7.40
2023-02-18T01:31:20.468Z,7.40
2023-02-18T01:33:49.029Z,7.40
2023-02-18T01:36:19.442Z,7.40
2023-02-18T01:38:47.891Z,7.40
2023-02-18T01:41:16.370Z,7.40
2023-02-18T01:43:44.844Z,7.40
2023-02-18T01:46:19.024Z,7.40
2023-02-18T01:48:51.263Z,7.50
2023-02-18T01:51:23.504Z,7.50
2023-02-18T01:54:02.830Z,7.50
2023-02-18T01:56:35.847Z,7.50
2023-02-18T01:59:09.673Z,7.50
2023-02-18T02:01:40.780Z,7.50
2023-02-18T02:04:09.341Z,7.50
2023-02-18T02:06:37.996Z,7.50
2023-02-18T02:09:09.212Z,7.50
2023-02-18T02:12:12.326Z,7.50
2023-02-18T02:15:07.935Z,7.50
2023-02-18T02:17:44.924Z,7.50
2023-02-18T02:20:55.063Z,7.50
2023-02-18T02:24:09.254Z,7.60
2023-02-18T02:27:11.616Z,7.60
2023-02-18T02:30:30.818Z,7.60
2023-02-18T02:33:37.457Z,7.60
2023-02-18T02:36:16.045Z,7.60
2023-02-18T02:38:56.242Z,7.60
2023-02-18T02:41:35.291Z,7.60
2023-02-18T02:44:14.902Z,7.60
2023-02-18T02:46:47.068Z,7.60
2023-02-18T02:49:27.636Z,7.60
2023-02-18T02:52:02.075Z,7.60
2023-02-18T02:54:31.070Z,7.60
2023-02-18T02:57:11.257Z,7.60
2023-02-18T02:59:42.817Z,7.60
2023-02-18T03:02:25.996Z,7.60
2023-02-18T03:05:13.309Z,7.60
2023-02-18T03:08:01.321Z,7.60
2023-02-18T03:10:44.701Z,7.60
2023-02-18T03:13:25.453Z,7.60
2023-02-18T03:15:58.248Z,7.60
2023-02-18T03:18:35.629Z,7.70
2023-02-18T03:21:08.679Z,7.70
2023-02-18T03:23:45.610Z,7.70
2023-02-18T03:26:17.359Z,7.70
2023-02-18T03:28:47.614Z,7.70
2023-02-18T03:31:21.386Z,7.70
2023-02-18T03:33:56.770Z,7.80
2023-02-18T03:36:26.082Z,7.70
2023-02-18T03:39:02.557Z,7.80
2023-02-18T03:41:31.460Z,7.70
2023-02-18T03:44:02.570Z,7.70
2023-02-18T03:46:32.154Z,7.60
2023-02-18T03:49:01.010Z,7.60
2023-02-18T03:51:29.589Z,7.60
2023-02-18T03:53:59.779Z,7.50
2023-02-18T03:56:28.260Z,7.50
2023-02-18T03:58:57.087Z,7.50
2023-02-18T04:01:25.623Z,7.50
2023-02-18T04:03:55.581Z,7.50
2023-02-18T04:06:24.828Z,7.50
2023-02-18T04:08:53.334Z,7.50
2023-02-18T04:11:23.282Z,7.50
2023-02-18T04:13:51.977Z,7.50
2023-02-18T04:16:20.507Z,7.50
2023-02-18T04:18:52.054Z,7.40
2023-02-18T04:21:20.501Z,7.50
2023-02-18T04:23:48.976Z,7.50
2023-02-18T04:26:17.446Z,7.40
2023-02-18T04:28:47.332Z,7.40
2023-02-18T04:31:16.012Z,7.40
2023-02-18T04:33:44.788Z,7.40
2023-02-18T04:36:13.316Z,7.40
2023-02-18T04:38:43.239Z,7.40
2023-02-18T04:41:12.920Z,7.40
2023-02-18T04:43:41.347Z,7.50
2023-02-18T04:46:11.505Z,7.40
2023-02-18T04:48:40.181Z,7.40
2023-02-18T04:51:08.773Z,7.40
2023-02-18T04:53:37.272Z,7.50
2023-02-18T04:56:06.578Z,7.40
2023-02-18T04:58:37.044Z,7.50
2023-02-18T05:01:06.095Z,7.50
2023-02-18T05:03:36.289Z,7.40
2023-02-18T05:06:05.302Z,7.40
2023-02-18T05:08:33.836Z,7.40
2023-02-18T05:11:06.245Z,7.40
2023-02-18T05:13:34.817Z,7.40
2023-02-18T05:16:04.385Z,7.40
2023-02-18T05:18:33.032Z,7.40
2023-02-18T05:21:02.969Z,7.40
2023-02-18T05:23:31.422Z,7.30
2023-02-18T05:26:00.047Z,7.30
2023-02-18T05:28:28.532Z,7.30
2023-02-18T05:30:57.109Z,7.40
2023-02-18T05:33:25.682Z,7.30
2023-02-18T05:35:54.285Z,7.30
2023-02-18T05:38:24.212Z,7.30
2023-02-18T05:40:52.698Z,7.30
2023-02-18T05:43:21.248Z,7.30
2023-02-18T05:45:49.728Z,7.30
2023-02-18T05:48:18.238Z,7.30
2023-02-18T05:50:46.784Z,7.30
2023-02-18T05:53:17.564Z,7.30
2023-02-18T05:55:47.652Z,7.30
2023-02-18T05:58:17.240Z,7.20
2023-02-18T06:00:45.708Z,7.30
2023-02-18T06:03:14.177Z,7.30
2023-02-18T06:05:42.724Z,7.30
2023-02-18T06:08:11.239Z,7.30
2023-02-18T06:10:42.185Z,7.30
2023-02-18T06:13:12.069Z,7.30
2023-02-18T06:15:40.917Z,7.30
2023-02-18T06:18:09.417Z,7.30
2023-02-18T06:20:37.840Z,7.30
2023-02-18T06:23:07.607Z,7.20
2023-02-18T06:25:36.459Z,7.20
2023-02-18T06:28:05.107Z,7.20
2023-02-18T06:30:35.202Z,7.20
2023-02-18T06:33:04.744Z,7.20
2023-02-18T06:35:33.865Z,7.20
2023-02-18T06:38:02.514Z,7.10
2023-02-18T06:40:31.253Z,7.10
2023-02-18T06:43:00.002Z,7.20
2023-02-18T06:45:28.574Z,7.20
2023-02-18T06:47:58.442Z,7.20
2023-02-18T06:50:26.894Z,7.10
2023-02-18T06:52:55.444Z,7.10
2023-02-18T06:55:24.043Z,7.10
2023-02-18T06:57:52.594Z,7.10
2023-02-18T07:00:22.840Z,7.10
2023-02-18T07:02:54.161Z,7.00
2023-02-18T07:05:24.103Z,7.00
2023-02-18T07:07:52.593Z,7.00
2023-02-18T07:10:21.282Z,7.00
2023-02-18T07:12:49.990Z,7.00
2023-02-18T07:15:21.842Z,7.00
2023-02-18T07:17:50.336Z,6.90
2023-02-18T07:20:19.290Z,7.00
2023-02-18T07:22:49.742Z,6.90
2023-02-18T07:25:18.461Z,6.90
2023-02-18T07:27:47.001Z,6.90
2023-02-18T07:30:16.661Z,6.90
2023-02-18T07:32:45.273Z,6.90
2023-02-18T07:35:16.201Z,6.90
2023-02-18T07:37:46.711Z,7.00
2023-02-18T07:40:18.708Z,7.00
2023-02-18T07:42:49.691Z,7.00
2023-02-18T07:45:18.261Z,7.10
2023-02-18T07:47:46.822Z,7.10
2023-02-18T07:50:15.386Z,7.10
2023-02-18T07:52:43.870Z,7.10
2023-02-18T07:55:12.376Z,7.20
2023-02-18T07:57:56.224Z,7.10
2023-02-18T08:00:25.583Z,7.10
2023-02-18T08:02:54.053Z,7.10
2023-02-18T08:05:22.852Z,7.10
2023-02-18T08:07:51.322Z,7.10
2023-02-18T08:10:19.947Z,7.10
2023-02-18T08:12:50.094Z,7.10
2023-02-18T08:15:18.647Z,7.10
2023-02-18T08:17:47.088Z,7.10
2023-02-18T08:20:15.742Z,7.00
2023-02-18T08:22:44.281Z,7.00
2023-02-18T08:25:27.567Z,6.90
2023-02-18T08:27:58.908Z,7.00
2023-02-18T08:30:27.688Z,7.00
2023-02-18T08:32:56.372Z,7.10
2023-02-18T08:35:25.198Z,7.10
2023-02-18T08:37:54.235Z,7.10
2023-02-18T08:40:23.444Z,7.10
2023-02-18T08:42:52.240Z,7.20
2023-02-18T08:45:22.183Z,7.30
2023-02-18T08:48:16.645Z,7.30
2023-02-18T08:50:39.235Z,7.30
2023-02-18T08:53:08.044Z,7.40
2023-02-18T08:55:38.216Z,7.40
2023-02-18T08:58:07.730Z,7.40
2023-02-18T09:00:40.887Z,7.30
2023-02-18T09:03:09.587Z,7.30
2023-02-18T09:05:38.055Z,7.30
2023-02-18T09:08:06.799Z,7.20
2023-02-18T09:10:35.818Z,7.30
2023-02-18T09:13:04.322Z,7.30
2023-02-18T09:15:33.277Z,7.30
2023-02-18T09:18:03.289Z,7.30
2023-02-18T09:20:31.776Z,7.30
2023-02-18T09:23:00.951Z,7.30
2023-02-18T09:25:29.794Z,7.30
2023-02-18T09:27:58.288Z,7.20
2023-02-18T09:30:26.831Z,7.30
2023-02-18T09:32:55.427Z,7.30
2023-02-18T09:35:25.336Z,7.30
2023-02-18T09:37:53.817Z,7.40
2023-02-18T09:40:29.115Z,7.30
2023-02-18T09:42:59.251Z,7.20
2023-02-18T09:45:27.796Z,7.10
2023-02-18T09:47:56.804Z,7.00
2023-02-18T09:50:30.013Z,7.00
2023-02-18T09:53:01.936Z,7.00
2023-02-18T09:55:32.733Z,7.00
2023-02-18T09:58:04.359Z,7.20
2023-02-18T10:00:37.926Z,7.30
2023-02-18T10:03:10.554Z,7.50
2023-02-18T10:05:45.776Z,7.50
2023-02-18T10:08:21.316Z,7.40
2023-02-18T10:10:49.943Z,7.40
2023-02-18T10:13:20.675Z,7.40
2023-02-18T10:15:50.814Z,7.30
2023-02-18T10:21:07.537Z,7.30
2023-02-18T10:23:39.404Z,7.30
2023-02-18T10:26:13.223Z,7.30
2023-02-18T10:28:41.953Z,7.30
2023-02-18T10:31:12.544Z,7.30
2023-02-18T10:33:47.745Z,7.30
2023-02-18T10:36:31.726Z,7.40
2023-02-18T10:39:32.927Z,7.50
2023-02-18T10:42:32.416Z,7.60
2023-02-18T10:45:14.076Z,7.60
2023-02-18T10:47:53.453Z,7.60
2023-02-18T10:50:30.030Z,7.60
2023-02-18T10:53:03.682Z,7.70
2023-02-18T10:55:40.647Z,7.80
2023-02-18T10:58:33.042Z,7.70
2023-02-18T11:01:05.331Z,7.60
2023-02-18T11:03:52.185Z,7.60
2023-02-18T11:06:29.910Z,7.50
2023-02-18T11:09:00.748Z,7.50
2023-02-18T11:11:32.848Z,7.60
2023-02-18T11:14:37.831Z,7.60
2023-02-18T11:17:21.986Z,7.60
2023-02-18T11:19:56.392Z,7.70
2023-02-18T11:22:26.564Z,7.70
2023-02-18T11:25:01.430Z,7.70
2023-02-18T11:27:36.801Z,7.80
2023-02-18T11:30:08.714Z,7.80
2023-02-18T11:32:38.351Z,7.60
2023-02-18T11:35:07.532Z,7.50
2023-02-18T11:37:38.873Z,7.50
2023-02-18T11:40:21.493Z,7.50
2023-02-18T11:42:50.342Z,7.30
2023-02-18T11:45:31.801Z,7.20
2023-02-18T11:48:02.374Z,7.20
2023-02-18T11:50:33.577Z,7.30
2023-02-18T11:53:02.266Z,7.40
2023-02-18T11:55:32.983Z,7.50
2023-02-18T11:58:03.447Z,7.60
2023-02-18T12:00:40.875Z,7.70
2023-02-18T12:03:19.358Z,7.80
2023-02-18T12:05:48.285Z,7.80
2023-02-18T12:08:21.827Z,7.70
2023-02-18T12:10:55.159Z,7.60
2023-02-18T12:13:28.468Z,7.50
2023-02-18T12:16:09.818Z,7.50
2023-02-18T12:18:58.989Z,7.50
2023-02-18T12:21:46.759Z,7.60
2023-02-18T12:24:27.801Z,7.60
2023-02-18T12:27:06.924Z,7.60
2023-02-18T12:30:05.744Z,7.60
2023-02-18T12:32:45.594Z,7.80
2023-02-18T12:35:32.197Z,7.80
2023-02-18T12:38:33.860Z,7.80
2023-02-18T12:41:28.228Z,7.60
2023-02-18T12:44:05.910Z,7.70
2023-02-18T12:46:50.877Z,7.80
2023-02-18T12:49:44.178Z,7.70
2023-02-18T12:52:19.257Z,7.80
2023-02-18T12:55:00.968Z,7.80
2023-02-18T12:57:40.101Z,8.00
2023-02-18T13:00:39.920Z,8.10
2023-02-18T13:03:37.948Z,8.10
2023-02-18T13:06:14.566Z,8.10
2023-02-18T13:08:53.050Z,8.20
2023-02-18T13:11:28.142Z,8.30
2023-02-18T13:14:03.457Z,8.10
2023-02-18T13:16:34.494Z,8.10
2023-02-18T13:19:08.729Z,8.10
2023-02-18T13:21:40.861Z,8.10
2023-02-18T13:24:14.142Z,8.00
2023-02-18T13:26:47.956Z,8.10
2023-02-18T13:29:26.905Z,8.10
2023-02-18T13:32:11.190Z,8.30
2023-02-18T13:34:49.776Z,8.30
2023-02-18T13:37:27.059Z,8.20
2023-02-18T13:39:58.215Z,8.30
2023-02-18T13:42:38.817Z,8.40
2023-02-18T13:45:26.332Z,8.50
2023-02-18T13:47:57.717Z,8.50
2023-02-18T13:50:41.564Z,8.40
2023-02-18T13:53:23.576Z,8.40
2023-02-18T13:56:02.743Z,8.40
2023-02-18T13:58:40.245Z,8.40
2023-02-18T14:01:21.033Z,8.40
2023-02-18T14:03:59.826Z,8.60
2023-02-18T14:06:30.891Z,8.90
2023-02-18T14:09:42.899Z,9.10
2023-02-18T14:12:26.492Z,9.60
2023-02-18T14:14:55.378Z,9.80
2023-02-18T14:17:33.411Z,9.90
2023-02-18T14:20:33.586Z,9.90
2023-02-18T14:23:02.302Z,9.80
2023-02-18T14:25:39.831Z,9.60
2023-02-18T14:28:43.705Z,9.50
2023-02-18T14:31:36.409Z,9.50
2023-02-18T14:34:39.166Z,9.40
2023-02-18T14:37:34.744Z,9.40
2023-02-18T14:40:22.512Z,9.40
2023-02-18T14:43:00.533Z,9.50
2023-02-18T14:45:41.521Z,9.40
2023-02-18T14:48:31.971Z,9.50
2023-02-18T14:51:01.321Z,9.50
2023-02-18T14:53:31.294Z,9.40
2023-02-18T14:56:03.494Z,9.30
2023-02-18T14:58:35.476Z,9.30
2023-02-18T15:01:08.548Z,9.20
2023-02-18T15:03:41.867Z,9.10
2023-02-18T15:06:25.196Z,9.00
2023-02-18T15:08:55.348Z,8.90
2023-02-18T15:11:26.813Z,8.90
2023-02-18T15:13:55.331Z,8.80
2023-02-18T15:16:31.607Z,8.80
2023-02-18T15:19:03.729Z,8.70
2023-02-18T15:21:34.668Z,8.70
2023-02-18T15:24:08.394Z,8.60
2023-02-18T15:26:42.738Z,8.50
2023-02-18T15:29:17.353Z,8.50
2023-02-18T15:31:45.929Z,8.40
2023-02-18T15:34:34.194Z,8.40
2023-02-18T15:37:04.657Z,8.30
2023-02-18T15:39:38.621Z,8.30
2023-02-18T15:42:20.795Z,8.20
2023-02-18T15:44:52.139Z,8.10
2023-02-18T15:47:21.887Z,8.10
2023-02-18T15:49:54.184Z,8.00
2023-02-18T15:52:28.177Z,7.90
2023-02-18T15:55:02.912Z,7.80
2023-02-18T15:57:32.771Z,7.70
2023-02-18T16:00:16.020Z,7.60
2023-02-18T16:02:56.007Z,7.50
2023-02-18T16:05:28.694Z,7.40
2023-02-18T16:08:01.026Z,7.30
2023-02-18T16:10:48.627Z,7.20
2023-02-18T16:13:19.667Z,7.20
2023-02-18T16:15:50.201Z,7.20
2023-02-18T16:18:31.597Z,7.10
2023-02-18T16:21:03.541Z,7.10
2023-02-18T16:23:36.258Z,7.10
2023-02-18T16:26:21.332Z,7.10
2023-02-18T16:28:53.501Z,7.00
2023-02-18T16:31:22.881Z,7.00
2023-02-18T16:33:51.841Z,7.00
2023-02-18T16:36:23.048Z,7.00
2023-02-18T16:38:51.653Z,6.90
2023-02-18T16:41:21.492Z,6.80
2023-02-18T16:43:50.796Z,6.70
2023-02-18T16:46:20.414Z,6.60
2023-02-18T16:48:51.922Z,6.60
2023-02-18T16:51:24.117Z,6.50
2023-02-18T16:53:53.122Z,6.50
2023-02-18T16:56:25.232Z,6.40
2023-02-18T16:58:54.173Z,6.30
2023-02-18T17:01:27.422Z,6.30
2023-02-18T17:03:56.665Z,6.30
2023-02-18T17:06:25.305Z,6.20
2023-02-18T17:08:54.012Z,6.20
2023-02-18T17:11:26.712Z,6.10
2023-02-18T17:13:58.260Z,6.00
2023-02-18T17:16:27.385Z,6.00
2023-02-18T17:18:55.993Z,6.00
2023-02-18T17:21:26.271Z,6.00
2023-02-18T17:23:55.082Z,5.90
2023-02-18T17:26:26.302Z,5.90
2023-02-18T17:28:58.686Z,5.90
2023-02-18T17:31:30.450Z,5.80
2023-02-18T17:34:02.792Z,5.80
2023-02-18T17:36:31.280Z,5.80
2023-02-18T17:39:01.603Z,5.70
2023-02-18T17:41:32.551Z,5.70
2023-02-18T17:44:00.943Z,5.70
2023-02-18T17:46:29.465Z,5.70
2023-02-18T17:48:59.269Z,5.70
2023-02-18T17:51:30.415Z,5.70
2023-02-18T17:53:58.975Z,5.60
2023-02-18T17:56:27.546Z,5.60
2023-02-18T17:58:57.843Z,5.50
2023-02-18T18:01:26.392Z,5.50
2023-02-18T18:03:56.270Z,5.50
2023-02-18T18:06:24.934Z,5.50
2023-02-18T18:08:54.533Z,5.40
2023-02-18T18:11:25.467Z,5.40
2023-02-18T18:13:54.398Z,5.40
2023-02-18T18:16:24.487Z,5.40
2023-02-18T18:18:53.430Z,5.40
2023-02-18T18:21:24.697Z,5.30
2023-02-18T18:23:53.588Z,5.30
2023-02-18T18:26:22.241Z,5.30
2023-02-18T18:28:50.741Z,5.20
2023-02-18T18:31:21.477Z,5.20
2023-02-18T18:33:55.044Z,5.20
2023-02-18T18:36:24.546Z,5.20
2023-02-18T18:38:53.716Z,5.20
2023-02-18T18:41:23.785Z,5.10
2023-02-18T18:43:52.367Z,5.10
2023-02-18T18:46:20.965Z,5.10
2023-02-18T18:48:51.068Z,5.10
2023-02-18T18:51:23.074Z,5.10
2023-02-18T18:53:52.389Z,5.10
2023-02-18T18:56:22.101Z,5.10
2023-02-18T18:58:51.008Z,5.00
2023-02-18T19:01:22.816Z,5.10
2023-02-18T19:03:52.740Z,5.00
2023-02-18T19:06:22.456Z,5.00
2023-02-18T19:08:51.088Z,5.00
2023-02-18T19:11:20.064Z,5.00
2023-02-18T19:13:48.817Z,5.00
2023-02-18T19:16:22.582Z,5.00
2023-02-18T19:18:53.742Z,5.00
2023-02-18T19:21:22.649Z,5.00
2023-02-18T19:23:51.518Z,5.00
2023-02-18T19:26:20.896Z,5.00
2023-02-18T19:28:49.452Z,5.00
2023-02-18T19:31:18.242Z,5.10
2023-02-18T19:33:47.402Z,5.00
2023-02-18T19:36:17.488Z,5.00
2023-02-18T19:38:47.095Z,5.00
2023-02-18T19:41:18.035Z,5.00
2023-02-18T19:43:47.843Z,5.00
2023-02-18T19:46:18.970Z,5.00
2023-02-18T19:48:51.211Z,5.00
2023-02-18T19:51:22.056Z,5.00
2023-02-18T19:53:50.734Z,5.10
2023-02-18T19:56:19.743Z,5.10
2023-02-18T19:58:48.559Z,5.10
2023-02-18T20:01:18.406Z,5.20
2023-02-18T20:03:47.512Z,5.20
2023-02-18T20:06:18.227Z,5.20
2023-02-18T20:08:48.709Z,5.30
2023-02-18T20:11:17.401Z,5.30
2023-02-18T20:13:46.091Z,5.40
2023-02-18T20:16:14.868Z,5.40
2023-02-18T20:18:43.716Z,5.40
2023-02-18T20:21:13.629Z,5.50
2023-02-18T20:23:42.509Z,5.50
2023-02-18T20:26:14.964Z,5.60
2023-02-18T20:28:44.677Z,5.60
2023-02-18T20:31:15.379Z,5.60
2023-02-18T20:33:44.117Z,5.60
2023-02-18T20:36:14.483Z,5.70
2023-02-18T20:38:43.777Z,5.70
2023-02-18T20:41:17.741Z,5.70
2023-02-18T20:43:46.805Z,5.70
2023-02-18T20:46:17.170Z,5.70
2023-02-18T20:48:45.928Z,5.70
2023-02-18T20:51:16.427Z,5.70
2023-02-18T20:53:46.246Z,5.70
2023-02-18T20:56:16.759Z,5.80
2023-02-18T20:58:45.603Z,5.80
2023-02-18T21:01:16.479Z,5.80
2023-02-18T21:03:47.278Z,5.80
2023-02-18T21:06:19.514Z,5.80
2023-02-18T21:08:49.860Z,5.80
2023-02-18T21:11:21.337Z,5.80
2023-02-18T21:13:51.934Z,5.80
2023-02-18T21:16:22.165Z,5.80
2023-02-18T21:18:50.960Z,5.80
2023-02-18T21:21:21.050Z,5.90
2023-02-18T21:23:49.518Z,5.90
2023-02-18T21:26:21.690Z,5.80
2023-02-18T21:28:51.631Z,5.90
2023-02-18T21:31:24.000Z,5.80
2023-02-18T21:33:53.123Z,5.90
2023-02-18T21:36:22.518Z,5.90
2023-02-18T21:38:54.916Z,5.90
2023-02-18T21:41:25.622Z,5.90
2023-02-18T21:43:54.261Z,5.90
2023-02-18T21:46:24.933Z,6.00
2023-02-18T21:49:07.303Z,6.00
2023-02-18T21:51:55.907Z,6.00
2023-02-18T21:54:27.183Z,6.00
2023-02-18T21:56:58.264Z,6.00
2023-02-18T21:59:29.079Z,6.00
2023-02-18T22:02:00.496Z,6.10
2023-02-18T22:04:29.896Z,6.10
2023-02-18T22:06:58.745Z,6.10
2023-02-18T22:09:28.269Z,6.10
2023-02-18T22:11:58.124Z,6.10
2023-02-18T22:14:26.661Z,6.10
2023-02-18T22:16:55.219Z,6.10
2023-02-18T22:19:23.840Z,6.10
2023-02-18T22:21:52.410Z,6.00
2023-02-18T22:24:21.169Z,6.00
2023-02-18T22:26:50.489Z,6.00
2023-02-18T22:29:21.456Z,6.00
2023-02-18T22:31:53.389Z,6.00
2023-02-18T22:34:21.996Z,6.00
2023-02-18T22:36:51.132Z,6.00
2023-02-18T22:39:19.648Z,6.00
2023-02-18T22:41:50.657Z,6.00
2023-02-18T22:44:31.498Z,6.00
2023-02-18T22:47:00.680Z,6.00
2023-02-18T22:49:29.132Z,6.00
2023-02-18T22:51:57.577Z,6.00
2023-02-18T22:57:19.523Z,6.00
2023-02-18T22:59:49.692Z,6.00
2023-02-18T23:02:18.169Z,6.00
2023-02-18T23:04:46.778Z,6.00
2023-02-18T23:07:15.528Z,6.00
2023-02-18T23:09:44.053Z,6.00
2023-02-18T23:12:14.547Z,6.00
2023-02-18T23:14:43.465Z,6.00
2023-02-18T23:17:17.980Z,6.00
2023-02-18T23:19:48.251Z,6.00
2023-02-18T23:22:17.977Z,6.00
2023-02-18T23:24:47.672Z,6.00
2023-02-18T23:27:17.393Z,5.90
2023-02-18T23:29:45.889Z,6.00
2023-02-18T23:32:15.935Z,6.00
2023-02-18T23:34:44.495Z,5.90
2023-02-18T23:37:13.352Z,5.90
2023-02-18T23:39:42.097Z,5.80
2023-02-18T23:42:11.695Z,5.80
2023-02-18T23:44:40.187Z,5.70
2023-02-18T23:47:09.045Z,5.70
2023-02-18T23:49:38.959Z,5.70
2023-02-18T23:52:07.519Z,5.70
2023-02-18T23:54:36.163Z,5.60
2023-02-18T23:57:04.718Z,5.60
2023-02-18T23:59:34.194Z,5.60
